sensor_id;sensor_type;location;lat;lon;timestamp;P1;durP1;ratioP1;P2;durP2;ratioP2
13321;SDS011;6730;46.248;6.930;2023-03-14T00:00:37;2.25;;;0.70;;
13321;SDS011;6730;46.248;6.930;2023-03-14T00:03:03;1.88;;;1.10;;
13321;SDS011;6730;46.248;6.930;2023-03-14T00:05:29;1.35;;;0.90;;
13321;SDS011;6730;46.248;6.930;2023-03-14T00:07:55;1.77;;;0.73;;
13321;SDS011;6730;46.248;6.930;2023-03-14T00:10:21;0.77;;;0.63;;
13321;SDS011;6730;46.248;6.930;2023-03-14T00:12:46;3.85;;;1.42;;
13321;SDS011;6730;46.248;6.930;2023-03-14T00:15:12;1.35;;;1.23;;
13321;SDS011;6730;46.248;6.930;2023-03-14T00:17:38;1.42;;;0.73;;
13321;SDS011;6730;46.248;6.930;2023-03-14T00:20:05;1.00;;;0.52;;
13321;SDS011;6730;46.248;6.930;2023-03-14T00:22:36;0.70;;;0.57;;
13321;SDS011;6730;46.248;6.930;2023-03-14T00:25:03;0.38;;;0.30;;
13321;SDS011;6730;46.248;6.930;2023-03-14T00:27:30;1.10;;;0.50;;
13321;SDS011;6730;46.248;6.930;2023-03-14T00:29:56;1.33;;;0.50;;
13321;SDS011;6730;46.248;6.930;2023-03-14T00:32:21;0.40;;;0.30;;
13321;SDS011;6730;46.248;6.930;2023-03-14T00:34:47;0.20;;;0.20;;
13321;SDS011;6730;46.248;6.930;2023-03-14T00:37:13;0.77;;;0.60;;
13321;SDS011;6730;46.248;6.930;2023-03-14T00:39:39;0.55;;;0.30;;
13321;SDS011;6730;46.248;6.930;2023-03-14T00:42:04;0.10;;;0.10;;
13321;SDS011;6730;46.248;6.930;2023-03-14T00:44:30;0.10;;;0.10;;
13321;SDS011;6730;46.248;6.930;2023-03-14T00:46:57;0.10;;;0.10;;
13321;SDS011;6730;46.248;6.930;2023-03-14T00:49:22;0.15;;;0.15;;
13321;SDS011;6730;46.248;6.930;2023-03-14T00:51:48;0.20;;;0.20;;
13321;SDS011;6730;46.248;6.930;2023-03-14T00:54:14;0.30;;;0.30;;
13321;SDS011;6730;46.248;6.930;2023-03-14T00:56:40;0.13;;;0.13;;
13321;SDS011;6730;46.248;6.930;2023-03-14T00:59:05;0.08;;;0.08;;
13321;SDS011;6730;46.248;6.930;2023-03-14T01:01:31;0.10;;;0.10;;
13321;SDS011;6730;46.248;6.930;2023-03-14T01:03:57;0.13;;;0.13;;
13321;SDS011;6730;46.248;6.930;2023-03-14T01:06:24;0.13;;;0.13;;
13321;SDS011;6730;46.248;6.930;2023-03-14T01:08:52;0.20;;;0.20;;
13321;SDS011;6730;46.248;6.930;2023-03-14T01:11:20;0.20;;;0.20;;
13321;SDS011;6730;46.248;6.930;2023-03-14T01:13:50;0.10;;;0.10;;
13321;SDS011;6730;46.248;6.930;2023-03-14T01:16:17;0.10;;;0.10;;
13321;SDS011;6730;46.248;6.930;2023-03-14T01:18:44;0.15;;;0.15;;
13321;SDS011;6730;46.248;6.930;2023-03-14T01:21:15;0.15;;;0.15;;
13321;SDS011;6730;46.248;6.930;2023-03-14T01:23:41;0.10;;;0.10;;
13321;SDS011;6730;46.248;6.930;2023-03-14T01:26:08;0.17;;;0.17;;
13321;SDS011;6730;46.248;6.930;2023-03-14T01:28:35;0.10;;;0.10;;
13321;SDS011;6730;46.248;6.930;2023-03-14T01:31:02;0.80;;;0.10;;
13321;SDS011;6730;46.248;6.930;2023-03-14T01:33:29;0.28;;;0.28;;
13321;SDS011;6730;46.248;6.930;2023-03-14T01:35:54;0.10;;;0.10;;
13321;SDS011;6730;46.248;6.930;2023-03-14T01:38:20;0.10;;;0.10;;
13321;SDS011;6730;46.248;6.930;2023-03-14T01:40:46;0.10;;;0.05;;
13321;SDS011;6730;46.248;6.930;2023-03-14T01:43:16;0.17;;;0.17;;
13321;SDS011;6730;46.248;6.930;2023-03-14T01:51:26;0.45;;;0.20;;
13321;SDS011;6730;46.248;6.930;2023-03-14T01:53:57;0.20;;;0.20;;
13321;SDS011;6730;46.248;6.930;2023-03-14T01:56:30;0.20;;;0.20;;
13321;SDS011;6730;46.248;6.930;2023-03-14T01:58:56;0.20;;;0.20;;
13321;SDS011;6730;46.248;6.930;2023-03-14T02:01:24;0.10;;;0.10;;
13321;SDS011;6730;46.248;6.930;2023-03-14T02:03:54;0.52;;;0.20;;
13321;SDS011;6730;46.248;6.930;2023-03-14T02:06:24;0.30;;;0.30;;
13321;SDS011;6730;46.248;6.930;2023-03-14T02:09:05;0.15;;;0.15;;
13321;SDS011;6730;46.248;6.930;2023-03-14T02:11:31;0.30;;;0.20;;
13321;SDS011;6730;46.248;6.930;2023-03-14T02:13:57;0.05;;;0.05;;
13321;SDS011;6730;46.248;6.930;2023-03-14T02:16:24;0.20;;;0.10;;
13321;SDS011;6730;46.248;6.930;2023-03-14T02:18:50;0.10;;;0.10;;
13321;SDS011;6730;46.248;6.930;2023-03-14T02:21:23;0.15;;;0.15;;
13321;SDS011;6730;46.248;6.930;2023-03-14T02:24:13;1.38;;;0.20;;
13321;SDS011;6730;46.248;6.930;2023-03-14T02:27:07;0.10;;;0.10;;
13321;SDS011;6730;46.248;6.930;2023-03-14T02:29:36;0.30;;;0.20;;
13321;SDS011;6730;46.248;6.930;2023-03-14T02:32:10;0.52;;;0.10;;
13321;SDS011;6730;46.248;6.930;2023-03-14T02:34:36;0.10;;;0.10;;
13321;SDS011;6730;46.248;6.930;2023-03-14T02:37:02;1.85;;;0.45;;
13321;SDS011;6730;46.248;6.930;2023-03-14T02:39:36;0.20;;;0.20;;
13321;SDS011;6730;46.248;6.930;2023-03-14T02:42:05;1.42;;;0.50;;
13321;SDS011;6730;46.248;6.930;2023-03-14T02:44:30;0.30;;;0.30;;
13321;SDS011;6730;46.248;6.930;2023-03-14T02:46:56;0.28;;;0.28;;
13321;SDS011;6730;46.248;6.930;2023-03-14T02:49:22;0.63;;;0.50;;
13321;SDS011;6730;46.248;6.930;2023-03-14T02:51:48;11.65;;;1.30;;
13321;SDS011;6730;46.248;6.930;2023-03-14T02:54:15;49.42;;;3.75;;
13321;SDS011;6730;46.248;6.930;2023-03-14T02:56:40;3.20;;;0.60;;
13321;SDS011;6730;46.248;6.930;2023-03-14T02:59:06;2.13;;;0.77;;
13321;SDS011;6730;46.248;6.930;2023-03-14T03:01:35;5.10;;;0.80;;
13321;SDS011;6730;46.248;6.930;2023-03-14T03:04:00;0.57;;;0.57;;
13321;SDS011;6730;46.248;6.930;2023-03-14T03:06:26;0.50;;;0.50;;
13321;SDS011;6730;46.248;6.930;2023-03-14T03:08:52;0.40;;;0.40;;
13321;SDS011;6730;46.248;6.930;2023-03-14T03:11:17;0.55;;;0.52;;
13321;SDS011;6730;46.248;6.930;2023-03-14T03:13:43;0.30;;;0.30;;
13321;SDS011;6730;46.248;6.930;2023-03-14T03:16:09;0.30;;;0.20;;
13321;SDS011;6730;46.248;6.930;2023-03-14T03:18:34;0.30;;;0.25;;
13321;SDS011;6730;46.248;6.930;2023-03-14T03:21:03;0.38;;;0.30;;
13321;SDS011;6730;46.248;6.930;2023-03-14T03:23:29;0.40;;;0.40;;
13321;SDS011;6730;46.248;6.930;2023-03-14T03:25:55;0.30;;;0.28;;
13321;SDS011;6730;46.248;6.930;2023-03-14T03:28:21;0.20;;;0.20;;
13321;SDS011;6730;46.248;6.930;2023-03-14T03:30:46;0.17;;;0.17;;
13321;SDS011;6730;46.248;6.930;2023-03-14T03:33:13;0.10;;;0.10;;
13321;SDS011;6730;46.248;6.930;2023-03-14T03:35:43;0.00;;;0.00;;
13321;SDS011;6730;46.248;6.930;2023-03-14T03:38:10;0.10;;;0.10;;
13321;SDS011;6730;46.248;6.930;2023-03-14T03:40:36;0.55;;;0.20;;
13321;SDS011;6730;46.248;6.930;2023-03-14T03:43:02;0.10;;;0.10;;
13321;SDS011;6730;46.248;6.930;2023-03-14T03:45:29;0.10;;;0.10;;
13321;SDS011;6730;46.248;6.930;2023-03-14T03:47:55;0.95;;;0.10;;
13321;SDS011;6730;46.248;6.930;2023-03-14T03:50:20;0.10;;;0.10;;
13321;SDS011;6730;46.248;6.930;2023-03-14T03:52:46;0.10;;;0.10;;
13321;SDS011;6730;46.248;6.930;2023-03-14T03:55:11;0.13;;;0.13;;
13321;SDS011;6730;46.248;6.930;2023-03-14T03:57:37;0.10;;;0.10;;
13321;SDS011;6730;46.248;6.930;2023-03-14T04:00:04;0.10;;;0.10;;
13321;SDS011;6730;46.248;6.930;2023-03-14T04:02:30;0.17;;;0.10;;
13321;SDS011;6730;46.248;6.930;2023-03-14T04:04:57;0.00;;;0.00;;
13321;SDS011;6730;46.248;6.930;2023-03-14T04:07:23;0.10;;;0.10;;
13321;SDS011;6730;46.248;6.930;2023-03-14T04:09:49;0.35;;;0.10;;
13321;SDS011;6730;46.248;6.930;2023-03-14T04:12:14;0.00;;;0.00;;
13321;SDS011;6730;46.248;6.930;2023-03-14T04:14:40;0.00;;;0.00;;
13321;SDS011;6730;46.248;6.930;2023-03-14T04:17:06;0.10;;;0.10;;
13321;SDS011;6730;46.248;6.930;2023-03-14T04:19:32;0.10;;;0.10;;
13321;SDS011;6730;46.248;6.930;2023-03-14T04:21:58;0.10;;;0.10;;
13321;SDS011;6730;46.248;6.930;2023-03-14T04:24:24;0.10;;;0.10;;
13321;SDS011;6730;46.248;6.930;2023-03-14T04:26:49;0.13;;;0.13;;
13321;SDS011;6730;46.248;6.930;2023-03-14T04:29:15;0.10;;;0.10;;
13321;SDS011;6730;46.248;6.930;2023-03-14T04:31:41;0.10;;;0.10;;
13321;SDS011;6730;46.248;6.930;2023-03-14T04:34:06;0.17;;;0.10;;
13321;SDS011;6730;46.248;6.930;2023-03-14T04:36:32;0.00;;;0.00;;
13321;SDS011;6730;46.248;6.930;2023-03-14T04:38:58;0.00;;;0.00;;
13321;SDS011;6730;46.248;6.930;2023-03-14T04:41:23;0.10;;;0.10;;
13321;SDS011;6730;46.248;6.930;2023-03-14T04:43:49;0.00;;;0.00;;
13321;SDS011;6730;46.248;6.930;2023-03-14T04:46:15;3.63;;;0.32;;
13321;SDS011;6730;46.248;6.930;2023-03-14T04:48:41;0.10;;;0.10;;
13321;SDS011;6730;46.248;6.930;2023-03-14T04:51:07;0.10;;;0.10;;
13321;SDS011;6730;46.248;6.930;2023-03-14T04:53:32;0.08;;;0.08;;
13321;SDS011;6730;46.248;6.930;2023-03-14T04:55:59;0.10;;;0.10;;
13321;SDS011;6730;46.248;6.930;2023-03-14T04:58:24;0.00;;;0.00;;
13321;SDS011;6730;46.248;6.930;2023-03-14T05:00:50;0.20;;;0.20;;
13321;SDS011;6730;46.248;6.930;2023-03-14T05:03:17;0.10;;;0.10;;
13321;SDS011;6730;46.248;6.930;2023-03-14T05:05:43;0.10;;;0.10;;
13321;SDS011;6730;46.248;6.930;2023-03-14T05:08:09;0.20;;;0.20;;
13321;SDS011;6730;46.248;6.930;2023-03-14T05:10:35;0.20;;;0.20;;
13321;SDS011;6730;46.248;6.930;2023-03-14T05:13:01;1.00;;;0.10;;
13321;SDS011;6730;46.248;6.930;2023-03-14T05:15:26;0.10;;;0.10;;
13321;SDS011;6730;46.248;6.930;2023-03-14T05:17:52;0.20;;;0.20;;
13321;SDS011;6730;46.248;6.930;2023-03-14T05:20:19;0.10;;;0.10;;
13321;SDS011;6730;46.248;6.930;2023-03-14T05:22:46;0.10;;;0.10;;
13321;SDS011;6730;46.248;6.930;2023-03-14T05:25:12;0.20;;;0.20;;
13321;SDS011;6730;46.248;6.930;2023-03-14T05:27:37;0.17;;;0.17;;
13321;SDS011;6730;46.248;6.930;2023-03-14T05:30:04;0.10;;;0.10;;
13321;SDS011;6730;46.248;6.930;2023-03-14T05:32:30;0.08;;;0.08;;
13321;SDS011;6730;46.248;6.930;2023-03-14T05:34:57;0.10;;;0.10;;
13321;SDS011;6730;46.248;6.930;2023-03-14T05:37:24;0.60;;;0.13;;
13321;SDS011;6730;46.248;6.930;2023-03-14T05:39:51;0.10;;;0.10;;
13321;SDS011;6730;46.248;6.930;2023-03-14T05:42:16;0.00;;;0.00;;
13321;SDS011;6730;46.248;6.930;2023-03-14T05:44:42;0.10;;;0.10;;
13321;SDS011;6730;46.248;6.930;2023-03-14T05:47:08;0.52;;;0.15;;
13321;SDS011;6730;46.248;6.930;2023-03-14T05:49:33;0.10;;;0.10;;
13321;SDS011;6730;46.248;6.930;2023-03-14T05:51:59;0.10;;;0.10;;
13321;SDS011;6730;46.248;6.930;2023-03-14T05:54:25;0.08;;;0.08;;
13321;SDS011;6730;46.248;6.930;2023-03-14T05:56:51;0.20;;;0.20;;
13321;SDS011;6730;46.248;6.930;2023-03-14T05:59:17;0.10;;;0.10;;
13321;SDS011;6730;46.248;6.930;2023-03-14T06:01:43;0.10;;;0.10;;
13321;SDS011;6730;46.248;6.930;2023-03-14T06:04:08;0.10;;;0.10;;
13321;SDS011;6730;46.248;6.930;2023-03-14T06:06:34;0.00;;;0.00;;
13321;SDS011;6730;46.248;6.930;2023-03-14T06:09:00;0.30;;;0.30;;
13321;SDS011;6730;46.248;6.930;2023-03-14T06:11:26;0.00;;;0.00;;
13321;SDS011;6730;46.248;6.930;2023-03-14T06:13:51;0.65;;;0.10;;
13321;SDS011;6730;46.248;6.930;2023-03-14T06:16:17;0.10;;;0.10;;
13321;SDS011;6730;46.248;6.930;2023-03-14T06:18:43;0.10;;;0.10;;
13321;SDS011;6730;46.248;6.930;2023-03-14T06:21:11;0.00;;;0.00;;
13321;SDS011;6730;46.248;6.930;2023-03-14T06:23:37;0.10;;;0.10;;
13321;SDS011;6730;46.248;6.930;2023-03-14T06:26:03;0.10;;;0.10;;
13321;SDS011;6730;46.248;6.930;2023-03-14T06:28:29;0.13;;;0.10;;
13321;SDS011;6730;46.248;6.930;2023-03-14T06:30:56;0.10;;;0.10;;
13321;SDS011;6730;46.248;6.930;2023-03-14T06:33:23;1.75;;;0.20;;
13321;SDS011;6730;46.248;6.930;2023-03-14T06:35:49;0.32;;;0.17;;
13321;SDS011;6730;46.248;6.930;2023-03-14T06:38:16;1.15;;;0.25;;
13321;SDS011;6730;46.248;6.930;2023-03-14T06:40:41;0.10;;;0.10;;
13321;SDS011;6730;46.248;6.930;2023-03-14T06:43:07;0.20;;;0.20;;
13321;SDS011;6730;46.248;6.930;2023-03-14T06:45:33;0.30;;;0.22;;
13321;SDS011;6730;46.248;6.930;2023-03-14T06:47:58;0.20;;;0.20;;
13321;SDS011;6730;46.248;6.930;2023-03-14T06:50:24;0.43;;;0.20;;
13321;SDS011;6730;46.248;6.930;2023-03-14T06:52:50;0.38;;;0.38;;
13321;SDS011;6730;46.248;6.930;2023-03-14T06:55:16;0.40;;;0.40;;
13321;SDS011;6730;46.248;6.930;2023-03-14T06:57:41;0.40;;;0.40;;
13321;SDS011;6730;46.248;6.930;2023-03-14T07:00:09;0.17;;;0.17;;
13321;SDS011;6730;46.248;6.930;2023-03-14T07:02:35;0.20;;;0.20;;
13321;SDS011;6730;46.248;6.930;2023-03-14T07:05:04;0.75;;;0.60;;
13321;SDS011;6730;46.248;6.930;2023-03-14T07:07:30;12.30;;;6.40;;
13321;SDS011;6730;46.248;6.930;2023-03-14T07:09:56;11.75;;;5.88;;
13321;SDS011;6730;46.248;6.930;2023-03-14T07:12:21;0.88;;;0.80;;
13321;SDS011;6730;46.248;6.930;2023-03-14T07:14:47;3.05;;;1.73;;
13321;SDS011;6730;46.248;6.930;2023-03-14T07:17:13;1.40;;;1.10;;
13321;SDS011;6730;46.248;6.930;2023-03-14T07:19:38;1.08;;;0.98;;
13321;SDS011;6730;46.248;6.930;2023-03-14T07:22:04;0.73;;;0.45;;
13321;SDS011;6730;46.248;6.930;2023-03-14T07:24:30;1.17;;;0.17;;
13321;SDS011;6730;46.248;6.930;2023-03-14T07:26:56;3.33;;;1.00;;
13321;SDS011;6730;46.248;6.930;2023-03-14T07:29:24;1.70;;;1.00;;
13321;SDS011;6730;46.248;6.930;2023-03-14T07:31:50;0.93;;;0.70;;
13321;SDS011;6730;46.248;6.930;2023-03-14T07:34:15;0.80;;;0.65;;
13321;SDS011;6730;46.248;6.930;2023-03-14T07:36:41;0.70;;;0.32;;
13321;SDS011;6730;46.248;6.930;2023-03-14T07:39:07;0.82;;;0.73;;
13321;SDS011;6730;46.248;6.930;2023-03-14T07:41:33;0.63;;;0.63;;
13321;SDS011;6730;46.248;6.930;2023-03-14T07:43:59;0.65;;;0.50;;
13321;SDS011;6730;46.248;6.930;2023-03-14T07:46:25;0.38;;;0.38;;
13321;SDS011;6730;46.248;6.930;2023-03-14T07:48:51;0.30;;;0.25;;
13321;SDS011;6730;46.248;6.930;2023-03-14T07:51:17;0.28;;;0.22;;
13321;SDS011;6730;46.248;6.930;2023-03-14T07:53:42;0.25;;;0.25;;
13321;SDS011;6730;46.248;6.930;2023-03-14T07:56:08;0.15;;;0.15;;
13321;SDS011;6730;46.248;6.930;2023-03-14T07:58:34;0.10;;;0.10;;
13321;SDS011;6730;46.248;6.930;2023-03-14T08:01:00;0.10;;;0.10;;
13321;SDS011;6730;46.248;6.930;2023-03-14T08:03:25;0.30;;;0.20;;
13321;SDS011;6730;46.248;6.930;2023-03-14T08:05:51;0.10;;;0.10;;
13321;SDS011;6730;46.248;6.930;2023-03-14T08:08:17;0.20;;;0.20;;
13321;SDS011;6730;46.248;6.930;2023-03-14T08:10:43;0.82;;;0.60;;
13321;SDS011;6730;46.248;6.930;2023-03-14T08:13:09;0.38;;;0.38;;
13321;SDS011;6730;46.248;6.930;2023-03-14T08:15:35;0.40;;;0.40;;
13321;SDS011;6730;46.248;6.930;2023-03-14T08:18:02;1.38;;;0.70;;
13321;SDS011;6730;46.248;6.930;2023-03-14T08:20:28;1.25;;;0.43;;
13321;SDS011;6730;46.248;6.930;2023-03-14T08:22:55;0.88;;;0.70;;
13321;SDS011;6730;46.248;6.930;2023-03-14T08:25:22;0.52;;;0.52;;
13321;SDS011;6730;46.248;6.930;2023-03-14T08:27:48;0.55;;;0.50;;
13321;SDS011;6730;46.248;6.930;2023-03-14T08:30:15;1.17;;;0.38;;
13321;SDS011;6730;46.248;6.930;2023-03-14T08:32:42;1.27;;;0.57;;
13321;SDS011;6730;46.248;6.930;2023-03-14T08:35:08;0.57;;;0.43;;
13321;SDS011;6730;46.248;6.930;2023-03-14T08:37:35;1.45;;;0.60;;
13321;SDS011;6730;46.248;6.930;2023-03-14T08:40:01;0.40;;;0.40;;
13321;SDS011;6730;46.248;6.930;2023-03-14T08:42:31;0.82;;;0.65;;
13321;SDS011;6730;46.248;6.930;2023-03-14T08:44:57;2.03;;;0.88;;
13321;SDS011;6730;46.248;6.930;2023-03-14T08:47:23;0.65;;;0.65;;
13321;SDS011;6730;46.248;6.930;2023-03-14T08:49:49;0.55;;;0.50;;
13321;SDS011;6730;46.248;6.930;2023-03-14T08:52:15;0.55;;;0.47;;
13321;SDS011;6730;46.248;6.930;2023-03-14T08:54:41;0.80;;;0.80;;
13321;SDS011;6730;46.248;6.930;2023-03-14T08:57:09;3.03;;;1.17;;
13321;SDS011;6730;46.248;6.930;2023-03-14T08:59:35;0.95;;;0.55;;
13321;SDS011;6730;46.248;6.930;2023-03-14T09:02:01;1.10;;;0.77;;
13321;SDS011;6730;46.248;6.930;2023-03-14T09:04:28;0.70;;;0.70;;
13321;SDS011;6730;46.248;6.930;2023-03-14T09:06:55;0.65;;;0.65;;
13321;SDS011;6730;46.248;6.930;2023-03-14T09:09:23;1.30;;;1.10;;
13321;SDS011;6730;46.248;6.930;2023-03-14T09:11:49;3.00;;;1.17;;
13321;SDS011;6730;46.248;6.930;2023-03-14T09:14:14;1.98;;;1.50;;
13321;SDS011;6730;46.248;6.930;2023-03-14T09:16:40;1.30;;;1.02;;
13321;SDS011;6730;46.248;6.930;2023-03-14T09:19:06;0.80;;;0.80;;
13321;SDS011;6730;46.248;6.930;2023-03-14T09:21:31;2.58;;;1.60;;
13321;SDS011;6730;46.248;6.930;2023-03-14T09:23:57;3.15;;;1.63;;
13321;SDS011;6730;46.248;6.930;2023-03-14T09:26:23;2.25;;;1.40;;
13321;SDS011;6730;46.248;6.930;2023-03-14T09:28:48;1.65;;;1.40;;
13321;SDS011;6730;46.248;6.930;2023-03-14T09:31:14;2.33;;;1.90;;
13321;SDS011;6730;46.248;6.930;2023-03-14T09:33:40;2.50;;;1.85;;
13321;SDS011;6730;46.248;6.930;2023-03-14T09:36:06;2.47;;;2.22;;
13321;SDS011;6730;46.248;6.930;2023-03-14T09:38:33;2.70;;;2.00;;
13321;SDS011;6730;46.248;6.930;2023-03-14T09:40:59;1.35;;;1.20;;
13321;SDS011;6730;46.248;6.930;2023-03-14T09:43:31;2.67;;;1.77;;
13321;SDS011;6730;46.248;6.930;2023-03-14T09:46:00;2.65;;;1.75;;
13321;SDS011;6730;46.248;6.930;2023-03-14T09:48:29;1.77;;;1.42;;
13321;SDS011;6730;46.248;6.930;2023-03-14T09:50:58;1.50;;;1.40;;
13321;SDS011;6730;46.248;6.930;2023-03-14T09:53:28;3.38;;;1.90;;
13321;SDS011;6730;46.248;6.930;2023-03-14T09:56:02;4.90;;;2.03;;
13321;SDS011;6730;46.248;6.930;2023-03-14T09:58:29;49.30;;;6.22;;
13321;SDS011;6730;46.248;6.930;2023-03-14T10:00:55;4.22;;;2.53;;
13321;SDS011;6730;46.248;6.930;2023-03-14T10:05:56;31.02;;;4.55;;
13321;SDS011;6730;46.248;6.930;2023-03-14T10:08:22;5.40;;;2.47;;
13321;SDS011;6730;46.248;6.930;2023-03-14T10:10:47;2.92;;;2.10;;
13321;SDS011;6730;46.248;6.930;2023-03-14T10:13:14;2.33;;;1.60;;
13321;SDS011;6730;46.248;6.930;2023-03-14T10:15:46;2.15;;;1.75;;
13321;SDS011;6730;46.248;6.930;2023-03-14T10:18:16;4.15;;;2.10;;
13321;SDS011;6730;46.248;6.930;2023-03-14T10:20:45;2.97;;;2.13;;
13321;SDS011;6730;46.248;6.930;2023-03-14T10:25:39;19.17;;;2.80;;
13321;SDS011;6730;46.248;6.930;2023-03-14T10:30:51;1.90;;;1.30;;
13321;SDS011;6730;46.248;6.930;2023-03-14T10:33:21;3.63;;;1.40;;
13321;SDS011;6730;46.248;6.930;2023-03-14T10:38:50;1.30;;;1.20;;
13321;SDS011;6730;46.248;6.930;2023-03-14T10:41:26;1.30;;;1.20;;
13321;SDS011;6730;46.248;6.930;2023-03-14T10:43:56;75.20;;;6.78;;
13321;SDS011;6730;46.248;6.930;2023-03-14T10:46:23;19.17;;;3.28;;
13321;SDS011;6730;46.248;6.930;2023-03-14T10:48:53;25.60;;;3.63;;
13321;SDS011;6730;46.248;6.930;2023-03-14T10:51:24;25.92;;;2.80;;
13321;SDS011;6730;46.248;6.930;2023-03-14T10:56:45;2.87;;;1.70;;
13321;SDS011;6730;46.248;6.930;2023-03-14T10:59:21;1.30;;;1.20;;
13321;SDS011;6730;46.248;6.930;2023-03-14T11:01:49;7.18;;;1.83;;
13321;SDS011;6730;46.248;6.930;2023-03-14T11:09:53;2.03;;;1.33;;
13321;SDS011;6730;46.248;6.930;2023-03-14T11:23:41;2.30;;;2.10;;
13321;SDS011;6730;46.248;6.930;2023-03-14T11:26:35;3.17;;;2.03;;
13321;SDS011;6730;46.248;6.930;2023-03-14T11:32:13;1.30;;;1.20;;
13321;SDS011;6730;46.248;6.930;2023-03-14T11:34:53;0.60;;;0.60;;
13321;SDS011;6730;46.248;6.930;2023-03-14T11:37:40;0.77;;;0.77;;
13321;SDS011;6730;46.248;6.930;2023-03-14T11:40:20;0.85;;;0.85;;
13321;SDS011;6730;46.248;6.930;2023-03-14T11:42:49;0.70;;;0.70;;
13321;SDS011;6730;46.248;6.930;2023-03-14T11:45:37;0.75;;;0.70;;
13321;SDS011;6730;46.248;6.930;2023-03-14T11:50:39;0.82;;;0.68;;
13321;SDS011;6730;46.248;6.930;2023-03-14T11:53:16;0.50;;;0.50;;
13321;SDS011;6730;46.248;6.930;2023-03-14T11:55:47;0.22;;;0.20;;
13321;SDS011;6730;46.248;6.930;2023-03-14T11:58:19;0.00;;;0.00;;
13321;SDS011;6730;46.248;6.930;2023-03-14T12:00:50;0.10;;;0.10;;
13321;SDS011;6730;46.248;6.930;2023-03-14T12:08:59;0.20;;;0.20;;
13321;SDS011;6730;46.248;6.930;2023-03-14T12:11:42;0.20;;;0.20;;
13321;SDS011;6730;46.248;6.930;2023-03-14T12:16:45;0.15;;;0.15;;
13321;SDS011;6730;46.248;6.930;2023-03-14T12:19:58;0.15;;;0.15;;
13321;SDS011;6730;46.248;6.930;2023-03-14T12:24:35;0.63;;;0.30;;
13321;SDS011;6730;46.248;6.930;2023-03-14T12:27:03;0.50;;;0.38;;
13321;SDS011;6730;46.248;6.930;2023-03-14T12:29:30;0.30;;;0.30;;
13321;SDS011;6730;46.248;6.930;2023-03-14T12:34:33;0.40;;;0.40;;
13321;SDS011;6730;46.248;6.930;2023-03-14T12:37:12;0.20;;;0.20;;
13321;SDS011;6730;46.248;6.930;2023-03-14T12:39:50;0.20;;;0.20;;
13321;SDS011;6730;46.248;6.930;2023-03-14T12:50:07;0.23;;;0.20;;
13321;SDS011;6730;46.248;6.930;2023-03-14T12:55:24;0.17;;;0.17;;
13321;SDS011;6730;46.248;6.930;2023-03-14T12:58:08;0.30;;;0.20;;
13321;SDS011;6730;46.248;6.930;2023-03-14T13:00:50;0.65;;;0.40;;
13321;SDS011;6730;46.248;6.930;2023-03-14T13:03:21;0.30;;;0.30;;
13321;SDS011;6730;46.248;6.930;2023-03-14T13:05:59;0.40;;;0.40;;
13321;SDS011;6730;46.248;6.930;2023-03-14T13:11:19;1.75;;;0.82;;
13321;SDS011;6730;46.248;6.930;2023-03-14T13:13:48;1.27;;;0.73;;
13321;SDS011;6730;46.248;6.930;2023-03-14T13:16:20;0.50;;;0.50;;
13321;SDS011;6730;46.248;6.930;2023-03-14T13:18:47;0.57;;;0.52;;
13321;SDS011;6730;46.248;6.930;2023-03-14T13:21:18;1.02;;;0.80;;
13321;SDS011;6730;46.248;6.930;2023-03-14T13:24:04;1.17;;;0.60;;
13321;SDS011;6730;46.248;6.930;2023-03-14T13:26:35;1.20;;;0.57;;
13321;SDS011;6730;46.248;6.930;2023-03-14T13:31:49;0.50;;;0.50;;
13321;SDS011;6730;46.248;6.930;2023-03-14T13:34:16;0.70;;;0.40;;
13321;SDS011;6730;46.248;6.930;2023-03-14T13:36:42;0.50;;;0.50;;
13321;SDS011;6730;46.248;6.930;2023-03-14T13:39:18;0.83;;;0.53;;
13321;SDS011;6730;46.248;6.930;2023-03-14T13:41:47;2.20;;;0.50;;
13321;SDS011;6730;46.248;6.930;2023-03-14T13:44:16;0.53;;;0.30;;
13321;SDS011;6730;46.248;6.930;2023-03-14T13:46:44;1.73;;;0.60;;
13321;SDS011;6730;46.248;6.930;2023-03-14T13:49:11;0.83;;;0.50;;
13321;SDS011;6730;46.248;6.930;2023-03-14T13:51:43;0.50;;;0.50;;
13321;SDS011;6730;46.248;6.930;2023-03-14T13:54:16;0.50;;;0.50;;
13321;SDS011;6730;46.248;6.930;2023-03-14T13:56:43;0.43;;;0.43;;
13321;SDS011;6730;46.248;6.930;2023-03-14T13:59:28;0.93;;;0.47;;
13321;SDS011;6730;46.248;6.930;2023-03-14T14:01:59;0.45;;;0.45;;
13321;SDS011;6730;46.248;6.930;2023-03-14T14:04:30;0.57;;;0.57;;
13321;SDS011;6730;46.248;6.930;2023-03-14T14:07:01;0.80;;;0.60;;
13321;SDS011;6730;46.248;6.930;2023-03-14T14:09:40;0.68;;;0.50;;
13321;SDS011;6730;46.248;6.930;2023-03-14T14:12:11;1.58;;;1.10;;
13321;SDS011;6730;46.248;6.930;2023-03-14T14:20:07;0.43;;;0.40;;
13321;SDS011;6730;46.248;6.930;2023-03-14T14:22:57;0.40;;;0.40;;
13321;SDS011;6730;46.248;6.930;2023-03-14T14:25:24;0.80;;;0.68;;
13321;SDS011;6730;46.248;6.930;2023-03-14T14:27:50;0.77;;;0.52;;
13321;SDS011;6730;46.248;6.930;2023-03-14T14:32:48;0.50;;;0.50;;
13321;SDS011;6730;46.248;6.930;2023-03-14T14:35:32;0.70;;;0.60;;
13321;SDS011;6730;46.248;6.930;2023-03-14T14:37:59;0.50;;;0.50;;
13321;SDS011;6730;46.248;6.930;2023-03-14T14:40:26;0.50;;;0.50;;
13321;SDS011;6730;46.248;6.930;2023-03-14T14:42:53;0.55;;;0.55;;
13321;SDS011;6730;46.248;6.930;2023-03-14T14:45:27;0.50;;;0.40;;
13321;SDS011;6730;46.248;6.930;2023-03-14T14:48:14;0.73;;;0.40;;
13321;SDS011;6730;46.248;6.930;2023-03-14T14:50:48;0.40;;;0.40;;
13321;SDS011;6730;46.248;6.930;2023-03-14T14:56:07;0.40;;;0.40;;
13321;SDS011;6730;46.248;6.930;2023-03-14T14:58:43;0.20;;;0.20;;
13321;SDS011;6730;46.248;6.930;2023-03-14T15:01:17;0.63;;;0.52;;
13321;SDS011;6730;46.248;6.930;2023-03-14T15:03:45;1.70;;;1.38;;
13321;SDS011;6730;46.248;6.930;2023-03-14T15:06:13;3.72;;;2.53;;
13321;SDS011;6730;46.248;6.930;2023-03-14T15:08:40;1.52;;;1.20;;
13321;SDS011;6730;46.248;6.930;2023-03-14T15:11:09;1.00;;;0.90;;
13321;SDS011;6730;46.248;6.930;2023-03-14T15:13:42;0.45;;;0.45;;
13321;SDS011;6730;46.248;6.930;2023-03-14T15:16:11;0.60;;;0.60;;
13321;SDS011;6730;46.248;6.930;2023-03-14T15:18:39;0.60;;;0.60;;
13321;SDS011;6730;46.248;6.930;2023-03-14T15:21:05;0.28;;;0.28;;
13321;SDS011;6730;46.248;6.930;2023-03-14T15:23:30;0.60;;;0.50;;
13321;SDS011;6730;46.248;6.930;2023-03-14T15:25:56;0.40;;;0.40;;
13321;SDS011;6730;46.248;6.930;2023-03-14T15:28:23;1.02;;;0.57;;
13321;SDS011;6730;46.248;6.930;2023-03-14T15:30:51;0.30;;;0.30;;
13321;SDS011;6730;46.248;6.930;2023-03-14T15:33:19;0.20;;;0.20;;
13321;SDS011;6730;46.248;6.930;2023-03-14T15:35:46;1.33;;;0.40;;
13321;SDS011;6730;46.248;6.930;2023-03-14T15:38:13;0.33;;;0.33;;
13321;SDS011;6730;46.248;6.930;2023-03-14T15:40:46;1.67;;;0.60;;
13321;SDS011;6730;46.248;6.930;2023-03-14T15:43:12;1.17;;;0.70;;
13321;SDS011;6730;46.248;6.930;2023-03-14T15:45:38;0.83;;;0.37;;
13321;SDS011;6730;46.248;6.930;2023-03-14T15:48:03;2.38;;;0.50;;
13321;SDS011;6730;46.248;6.930;2023-03-14T15:50:29;1.20;;;1.10;;
13321;SDS011;6730;46.248;6.930;2023-03-14T15:52:55;1.40;;;0.90;;
13321;SDS011;6730;46.248;6.930;2023-03-14T15:55:22;1.25;;;1.00;;
13321;SDS011;6730;46.248;6.930;2023-03-14T15:57:48;2.28;;;1.70;;
13321;SDS011;6730;46.248;6.930;2023-03-14T16:00:16;1.08;;;0.65;;
13321;SDS011;6730;46.248;6.930;2023-03-14T16:02:44;2.55;;;0.85;;
13321;SDS011;6730;46.248;6.930;2023-03-14T16:05:10;2.97;;;1.37;;
13321;SDS011;6730;46.248;6.930;2023-03-14T16:07:37;2.30;;;1.23;;
13321;SDS011;6730;46.248;6.930;2023-03-14T16:10:04;1.65;;;1.17;;
13321;SDS011;6730;46.248;6.930;2023-03-14T16:12:31;1.50;;;0.90;;
13321;SDS011;6730;46.248;6.930;2023-03-14T16:14:56;1.13;;;0.70;;
13321;SDS011;6730;46.248;6.930;2023-03-14T16:17:22;0.55;;;0.55;;
13321;SDS011;6730;46.248;6.930;2023-03-14T16:19:48;0.55;;;0.55;;
13321;SDS011;6730;46.248;6.930;2023-03-14T16:22:14;0.30;;;0.30;;
13321;SDS011;6730;46.248;6.930;2023-03-14T16:24:39;0.40;;;0.40;;
13321;SDS011;6730;46.248;6.930;2023-03-14T16:27:05;1.65;;;0.20;;